createdAt,value
2018-07-19T00:00:08.869Z,101596.27
2018-07-19T00:03:33.303Z,101604.44
2018-07-19T00:06:57.781Z,101605.14
2018-07-19T00:10:22.209Z,101599.37
2018-07-19T00:13:46.657Z,101594.17
2018-07-19T00:17:11.088Z,101598.55
2018-07-19T00:20:35.546Z,101591.34
2018-07-19T00:24:00.035Z,101592.58
2018-07-19T00:27:24.983Z,101593.82
2018-07-19T00:30:49.411Z,101609.22
2018-07-19T00:34:13.869Z,101602.75
2018-07-19T00:37:38.296Z,101598.62
2018-07-19T00:41:02.937Z,101608.52
2018-07-19T00:44:27.392Z,101598.06
2018-07-19T00:47:51.859Z,101605.05
2018-07-19T00:51:16.322Z,101592.72
2018-07-19T00:54:40.783Z,101593.89
2018-07-19T00:58:05.368Z,101591.31
2018-07-19T01:01:29.891Z,101587.56
2018-07-19T01:04:54.325Z,101585.32
2018-07-19T01:08:18.755Z,101583.25
2018-07-19T01:11:43.219Z,101581.98
2018-07-19T01:15:07.716Z,101580.15
2018-07-19T01:18:32.208Z,101582.23
2018-07-19T01:21:56.659Z,101578.06
2018-07-19T01:25:21.092Z,101576.20
2018-07-19T01:28:45.543Z,101579.77
2018-07-19T01:32:10.551Z,101581.27
2018-07-19T01:35:34.997Z,101577.52
2018-07-19T01:38:59.424Z,101579.44
2018-07-19T01:42:36.066Z,101589.01
2018-07-19T01:46:00.540Z,101584.93
2018-07-19T01:49:24.981Z,101579.66
2018-07-19T01:52:49.425Z,101589.08
2018-07-19T01:56:13.908Z,101588.05
2018-07-19T01:59:38.354Z,101584.09
2018-07-19T02:03:02.811Z,101593.80
2018-07-19T02:06:27.300Z,101594.62
2018-07-19T02:09:51.784Z,101600.38
2018-07-19T02:13:16.226Z,101604.13
2018-07-19T02:16:40.676Z,101598.25
2018-07-19T02:20:05.193Z,101596.82
2018-07-19T02:23:29.737Z,101596.86
2018-07-19T02:26:54.210Z,101592.91
2018-07-19T02:30:18.751Z,101586.06
2018-07-19T02:33:43.190Z,101587.72
2018-07-19T02:37:07.692Z,101586.89
2018-07-19T02:40:32.183Z,101588.44
2018-07-19T02:43:56.707Z,101588.37
2018-07-19T02:47:21.115Z,101581.63
2018-07-19T02:50:45.568Z,101586.84
2018-07-19T02:54:10.176Z,101588.86
2018-07-19T02:57:34.655Z,101583.53
2018-07-19T03:00:59.125Z,101586.27
2018-07-19T03:04:23.570Z,101578.39
2018-07-19T03:07:48.101Z,101578.54
2018-07-19T03:11:12.434Z,101576.67
2018-07-19T03:14:36.875Z,101575.30
2018-07-19T03:18:01.302Z,101582.20
2018-07-19T03:21:25.805Z,101584.56
2018-07-19T03:24:50.282Z,101584.52
2018-07-19T03:28:14.733Z,101581.92
2018-07-19T03:31:39.193Z,101577.98
2018-07-19T03:35:03.651Z,101578.91
2018-07-19T03:38:28.125Z,101587.37
2018-07-19T03:41:52.570Z,101592.03
2018-07-19T03:45:17.035Z,101584.34
2018-07-19T03:48:41.470Z,101585.81
2018-07-19T03:52:06.035Z,101584.59
2018-07-19T03:55:30.505Z,101582.06
2018-07-19T03:58:55.014Z,101583.86
2018-07-19T04:02:19.439Z,101582.39
2018-07-19T04:05:43.873Z,101584.81
2018-07-19T04:09:08.862Z,101585.09
2018-07-19T04:12:33.299Z,101589.34
2018-07-19T04:15:57.723Z,101588.27
2018-07-19T04:19:22.163Z,101589.30
2018-07-19T04:22:46.692Z,101591.42
2018-07-19T04:26:11.336Z,101588.02
2018-07-19T04:29:35.790Z,101581.91
2018-07-19T04:33:00.248Z,101585.77
2018-07-19T04:36:24.714Z,101588.24
2018-07-19T04:39:49.237Z,101578.58
2018-07-19T04:43:13.711Z,101588.09
2018-07-19T04:46:38.195Z,101593.11
2018-07-19T04:50:02.622Z,101579.84
2018-07-19T04:53:27.060Z,101588.06
2018-07-19T04:56:51.484Z,101593.39
2018-07-19T05:00:15.971Z,101589.57
2018-07-19T05:03:40.436Z,101589.26
2018-07-19T05:07:04.917Z,101592.72
2018-07-19T05:10:29.415Z,101595.84
2018-07-19T05:13:53.910Z,101604.76
2018-07-19T05:17:18.358Z,101605.37
2018-07-19T05:20:42.866Z,101601.85
2018-07-19T05:24:07.476Z,101605.53
2018-07-19T05:27:31.918Z,101611.66
2018-07-19T05:30:56.389Z,101607.94
2018-07-19T05:34:20.862Z,101604.84
2018-07-19T05:37:45.339Z,101603.53
2018-07-19T05:41:09.945Z,101604.47
2018-07-19T05:44:34.389Z,101614.30
2018-07-19T05:47:58.864Z,101608.58
2018-07-19T05:51:23.361Z,101608.91
2018-07-19T05:54:47.882Z,101606.78
2018-07-19T05:58:12.367Z,101606.77
2018-07-19T06:01:36.763Z,101608.03
2018-07-19T06:05:01.231Z,101605.51
2018-07-19T06:08:25.724Z,101602.72
2018-07-19T06:11:50.196Z,101603.88
2018-07-19T06:15:14.744Z,101603.16
2018-07-19T06:18:39.292Z,101610.42
2018-07-19T06:22:03.723Z,101599.41
2018-07-19T06:25:28.197Z,101603.56
2018-07-19T06:28:52.644Z,101614.06
2018-07-19T06:32:17.196Z,101615.41
2018-07-19T06:35:41.782Z,101606.52
2018-07-19T06:39:08.455Z,101611.05
2018-07-19T06:42:32.932Z,101602.58
2018-07-19T06:45:57.465Z,101603.30
2018-07-19T06:49:21.947Z,101608.80
2018-07-19T06:52:46.401Z,101607.37
2018-07-19T06:56:10.893Z,101605.98
2018-07-19T06:59:35.397Z,101606.17
2018-07-19T07:02:59.847Z,101608.38
2018-07-19T07:06:24.306Z,101613.05
2018-07-19T07:09:48.769Z,101618.42
2018-07-19T07:13:13.275Z,101618.78
2018-07-19T07:16:37.799Z,101623.30
2018-07-19T07:20:02.255Z,101621.57
2018-07-19T07:23:26.739Z,101623.61
2018-07-19T07:26:51.210Z,101622.88
2018-07-19T07:30:15.742Z,101632.19
2018-07-19T07:33:40.240Z,101637.45
2018-07-19T07:37:04.687Z,101640.67
2018-07-19T07:40:29.180Z,101633.61
2018-07-19T07:43:53.702Z,101634.37
2018-07-19T07:47:18.229Z,101642.73
2018-07-19T07:50:42.761Z,101648.95
2018-07-19T07:54:07.230Z,101645.38
2018-07-19T07:57:31.684Z,101644.64
2018-07-19T08:00:56.164Z,101643.68
2018-07-19T08:04:20.654Z,101639.23
2018-07-19T08:07:45.180Z,101642.78
2018-07-19T08:11:09.676Z,101645.52
2018-07-19T08:14:34.243Z,101643.69
2018-07-19T08:17:58.720Z,101639.72
2018-07-19T08:21:23.171Z,101637.57
2018-07-19T08:24:47.628Z,101637.19
2018-07-19T08:28:12.116Z,101653.03
2018-07-19T08:31:36.581Z,101649.97
2018-07-19T08:35:01.088Z,101637.82
2018-07-19T08:38:25.585Z,101642.51
2018-07-19T08:41:50.052Z,101637.24
2018-07-19T08:45:14.506Z,101633.31
2018-07-19T08:48:38.948Z,101629.45
2018-07-19T08:52:03.548Z,101627.88
2018-07-19T08:55:27.998Z,101622.76
2018-07-19T08:58:52.499Z,101622.47
2018-07-19T09:02:17.085Z,101614.91
2018-07-19T09:05:41.519Z,101615.97
2018-07-19T09:09:09.094Z,101615.36
2018-07-19T09:12:33.514Z,101612.11
2018-07-19T09:15:57.974Z,101613.12
2018-07-19T09:19:22.502Z,101613.94
2018-07-19T09:22:46.961Z,101606.80
2018-07-19T09:26:11.558Z,101602.52
2018-07-19T09:29:35.995Z,101606.16
2018-07-19T09:33:00.489Z,101604.19
2018-07-19T09:36:24.969Z,101597.48
2018-07-19T09:39:49.388Z,101603.02
2018-07-19T09:43:13.871Z,101592.49
2018-07-19T09:46:38.325Z,101597.52
2018-07-19T09:50:02.792Z,101593.72
2018-07-19T09:53:27.215Z,101587.58
2018-07-19T09:56:51.667Z,101598.63
2018-07-19T10:00:20.189Z,101596.34
2018-07-19T10:03:44.356Z,101589.03
2018-07-19T10:07:08.831Z,101588.64
2018-07-19T10:10:33.273Z,101585.26
2018-07-19T10:13:57.698Z,101586.95
2018-07-19T10:17:22.215Z,101579.61
2018-07-19T10:20:46.682Z,101584.05
2018-07-19T10:24:11.195Z,101578.59
2018-07-19T10:27:35.619Z,101576.75
2018-07-19T10:31:00.092Z,101574.17
2018-07-19T10:34:24.589Z,101573.95
2018-07-19T10:37:49.016Z,101567.45
2018-07-19T10:41:13.474Z,101575.03
2018-07-19T10:44:37.922Z,101564.84
2018-07-19T10:48:02.459Z,101573.30
2018-07-19T10:51:26.911Z,101566.60
2018-07-19T10:54:51.330Z,101557.44
2018-07-19T10:58:15.767Z,101553.42
2018-07-19T11:01:40.221Z,101558.70
2018-07-19T11:05:05.092Z,101555.17
2018-07-19T11:08:29.571Z,101559.64
2018-07-19T11:11:54.043Z,101553.20
2018-07-19T11:15:18.507Z,101541.20
2018-07-19T11:18:42.989Z,101538.80
2018-07-19T11:22:07.525Z,101540.67
2018-07-19T11:25:31.988Z,101542.91
2018-07-19T11:28:56.425Z,101536.72
2018-07-19T11:32:20.863Z,101533.84
2018-07-19T11:35:45.330Z,101536.55
2018-07-19T11:39:10.153Z,101530.69
2018-07-19T11:42:34.594Z,101529.85
2018-07-19T11:45:59.027Z,101525.99
2018-07-19T11:49:23.625Z,101525.22
2018-07-19T11:52:48.053Z,101517.39
2018-07-19T11:56:12.541Z,101515.73
2018-07-19T11:59:36.962Z,101515.49
2018-07-19T12:03:01.449Z,101506.06
2018-07-19T12:06:25.903Z,101508.86
2018-07-19T12:09:50.361Z,101502.16
2018-07-19T12:13:14.799Z,101503.59
2018-07-19T12:16:39.245Z,101493.52
2018-07-19T12:20:03.700Z,101496.56
2018-07-19T12:23:28.130Z,101485.84
2018-07-19T12:26:52.873Z,101486.43
2018-07-19T12:30:17.277Z,101484.06
2018-07-19T12:33:41.704Z,101484.84
2018-07-19T12:37:06.140Z,101495.08
2018-07-19T12:40:30.703Z,101481.48
2018-07-19T12:43:55.149Z,101474.06
2018-07-19T12:47:19.591Z,101481.11
2018-07-19T12:50:44.049Z,101475.48
2018-07-19T12:54:08.539Z,101472.77
2018-07-19T12:57:32.985Z,101472.77
2018-07-19T13:00:57.424Z,101464.45
2018-07-19T13:04:21.846Z,101469.50
2018-07-19T13:07:46.287Z,101463.45
2018-07-19T13:11:10.826Z,101472.62
2018-07-19T13:14:41.955Z,101474.16
2018-07-19T13:18:06.395Z,101469.06
2018-07-19T13:21:30.900Z,101463.64
2018-07-19T13:24:55.340Z,101467.69
2018-07-19T13:28:19.867Z,101456.11
2018-07-19T13:31:44.338Z,101455.25
2018-07-19T13:35:08.792Z,101455.63
2018-07-19T13:38:33.212Z,101455.95
2018-07-19T13:41:57.664Z,101451.13
2018-07-19T13:45:22.115Z,101448.13
2018-07-19T13:48:46.566Z,101456.90
2018-07-19T13:52:11.096Z,101446.34
2018-07-19T13:55:35.499Z,101446.95
2018-07-19T13:58:59.982Z,101441.85
2018-07-19T14:02:24.497Z,101439.55
2018-07-19T14:05:48.939Z,101440.13
2018-07-19T14:09:15.403Z,101434.47
2018-07-19T14:12:39.852Z,101436.41
2018-07-19T14:16:04.361Z,101433.48
2018-07-19T14:19:28.816Z,101429.98
2018-07-19T14:22:53.263Z,101421.42
2018-07-19T14:26:17.735Z,101419.97
2018-07-19T14:29:42.184Z,101424.94
2018-07-19T14:33:06.853Z,101423.21
2018-07-19T14:36:31.333Z,101416.86
2018-07-19T14:39:55.769Z,101421.20
2018-07-19T14:43:20.254Z,101410.06
2018-07-19T14:46:44.693Z,101412.28
2018-07-19T14:50:09.111Z,101411.13
2018-07-19T14:53:33.507Z,101412.80
2018-07-19T14:56:57.960Z,101402.77
2018-07-19T15:00:22.396Z,101395.81
2018-07-19T15:03:46.800Z,101398.30
2018-07-19T15:07:11.258Z,101385.30
2018-07-19T15:10:35.698Z,101391.80
2018-07-19T15:14:00.147Z,101386.30
2018-07-19T15:17:24.568Z,101381.52
2018-07-19T15:20:49.038Z,101378.59
2018-07-19T15:24:13.461Z,101381.78
2018-07-19T15:27:37.886Z,101371.39
2018-07-19T15:31:02.317Z,101368.02
2018-07-19T15:34:26.783Z,101363.77
2018-07-19T15:37:51.232Z,101364.20
2018-07-19T15:41:15.684Z,101361.02
2018-07-19T15:44:40.111Z,101358.67
2018-07-19T15:48:04.663Z,101354.45
2018-07-19T15:51:29.085Z,101360.33
2018-07-19T15:54:53.525Z,101353.34
2018-07-19T15:58:18.023Z,101351.63
2018-07-19T16:01:42.474Z,101339.48
2018-07-19T16:05:07.082Z,101347.15
2018-07-19T16:08:31.537Z,101342.94
2018-07-19T16:11:56.018Z,101344.77
2018-07-19T16:15:20.442Z,101348.07
2018-07-19T16:18:44.854Z,101335.84
2018-07-19T16:22:09.310Z,101333.46
2018-07-19T16:25:33.749Z,101327.30
2018-07-19T16:28:58.206Z,101328.66
2018-07-19T16:32:22.665Z,101327.27
2018-07-19T16:35:47.116Z,101325.77
2018-07-19T16:39:11.904Z,101322.00
2018-07-19T16:42:36.329Z,101315.01
2018-07-19T16:46:00.749Z,101309.66
2018-07-19T16:49:25.170Z,101312.69
2018-07-19T16:52:49.702Z,101314.83
2018-07-19T16:56:14.141Z,101318.25
2018-07-19T16:59:38.579Z,101305.58
2018-07-19T17:03:03.013Z,101296.73
2018-07-19T17:06:27.497Z,101294.05
2018-07-19T17:09:51.925Z,101302.92
2018-07-19T17:13:16.382Z,101298.16
2018-07-19T17:16:40.833Z,101294.77
2018-07-19T17:20:05.551Z,101299.64
2018-07-19T17:23:30.361Z,101292.09
2018-07-19T17:26:54.765Z,101290.11
2018-07-19T17:30:19.245Z,101283.54
2018-07-19T17:33:43.704Z,101283.91
2018-07-19T17:37:08.137Z,101289.81
2018-07-19T17:40:32.639Z,101284.11
2018-07-19T17:43:57.055Z,101283.33
2018-07-19T17:47:21.550Z,101278.45
2018-07-19T17:50:46.042Z,101281.37
2018-07-19T17:54:10.480Z,101279.40
2018-07-19T17:57:34.949Z,101281.41
2018-07-19T18:00:59.404Z,101283.77
2018-07-19T18:04:23.926Z,101280.61
2018-07-19T18:07:48.497Z,101287.82
2018-07-19T18:11:12.937Z,101296.94
2018-07-19T18:14:37.430Z,101286.36
2018-07-19T18:18:01.887Z,101290.13
2018-07-19T18:21:26.338Z,101288.73
2018-07-19T18:24:50.855Z,101285.39
2018-07-19T18:28:15.313Z,101278.97
2018-07-19T18:31:39.758Z,101281.64
2018-07-19T18:35:04.236Z,101282.04
2018-07-19T18:38:28.675Z,101278.99
2018-07-19T18:41:53.120Z,101277.30
2018-07-19T18:45:17.555Z,101278.89
2018-07-19T18:48:41.989Z,101280.95
2018-07-19T18:52:06.532Z,101286.72
2018-07-19T18:55:30.990Z,101293.16
2018-07-19T18:58:55.410Z,101288.44
2018-07-19T19:02:20.915Z,101291.59
2018-07-19T19:05:45.386Z,101298.33
2018-07-19T19:09:11.247Z,101297.16
2018-07-19T19:12:35.713Z,101303.99
2018-07-19T19:16:00.201Z,101298.51
2018-07-19T19:19:24.649Z,101301.13
2018-07-19T19:22:49.090Z,101306.53
2018-07-19T19:26:13.536Z,101306.73
2018-07-19T19:29:38.028Z,101311.66
2018-07-19T19:33:02.480Z,101311.36
2018-07-19T19:36:26.970Z,101313.73
2018-07-19T19:39:51.438Z,101315.05
2018-07-19T19:43:15.896Z,101317.28
2018-07-19T19:46:40.329Z,101313.58
2018-07-19T19:50:04.967Z,101320.16
2018-07-19T19:53:29.434Z,101319.39
2018-07-19T19:56:54.742Z,101320.63
2018-07-19T20:00:19.174Z,101320.14
2018-07-19T20:03:43.578Z,101328.59
2018-07-19T20:07:07.985Z,101329.27
2018-07-19T20:10:32.492Z,101328.84
2018-07-19T20:13:56.969Z,101333.59
2018-07-19T20:17:21.417Z,101342.83
2018-07-19T20:20:46.013Z,101343.06
2018-07-19T20:24:10.433Z,101341.22
2018-07-19T20:27:34.869Z,101340.52
2018-07-19T20:30:59.326Z,101346.08
2018-07-19T20:34:23.766Z,101349.23
2018-07-19T20:37:48.222Z,101346.56
2018-07-19T20:41:12.742Z,101346.83
2018-07-19T20:44:37.485Z,101350.99
2018-07-19T20:48:01.922Z,101355.27
2018-07-19T20:51:26.346Z,101356.06
2018-07-19T20:54:50.775Z,101355.21
2018-07-19T20:58:15.213Z,101358.71
2018-07-19T21:01:39.677Z,101356.86
2018-07-19T21:05:04.199Z,101357.10
2018-07-19T21:08:28.648Z,101359.72
2018-07-19T21:11:53.088Z,101355.64
2018-07-19T21:15:17.529Z,101356.59
2018-07-19T21:18:41.961Z,101366.44
2018-07-19T21:22:06.496Z,101362.30
2018-07-19T21:25:30.933Z,101356.88
2018-07-19T21:28:55.355Z,101361.94
2018-07-19T21:32:19.783Z,101361.42
2018-07-19T21:35:44.191Z,101358.33
2018-07-19T21:39:11.093Z,101365.22
2018-07-19T21:42:35.520Z,101376.85
2018-07-19T21:45:59.956Z,101380.81
2018-07-19T21:49:24.410Z,101373.45
2018-07-19T21:52:48.854Z,101364.36
2018-07-19T21:56:13.324Z,101369.36
2018-07-19T21:59:37.724Z,101369.88
2018-07-19T22:03:02.236Z,101369.74
2018-07-19T22:06:26.671Z,101373.52
2018-07-19T22:09:51.067Z,101367.14
2018-07-19T22:13:15.525Z,101364.22
2018-07-19T22:16:40.940Z,101365.22
2018-07-19T22:20:05.552Z,101363.17
2018-07-19T22:23:29.995Z,101367.12
2018-07-19T22:26:54.418Z,101372.96
2018-07-19T22:30:18.869Z,101370.73
2018-07-19T22:33:43.296Z,101371.22
2018-07-19T22:37:07.712Z,101367.79
2018-07-19T22:40:32.192Z,101367.42
2018-07-19T22:43:56.647Z,101375.66
2018-07-19T22:47:21.096Z,101373.53
2018-07-19T22:50:45.254Z,101375.19
2018-07-19T22:54:09.682Z,101369.52
2018-07-19T22:57:34.107Z,101375.71
2018-07-19T23:00:58.511Z,101369.05
2018-07-19T23:04:22.923Z,101368.75
2018-07-19T23:07:47.359Z,101367.33
2018-07-19T23:11:11.773Z,101371.27
2018-07-19T23:14:36.205Z,101363.72
2018-07-19T23:18:00.666Z,101356.58
2018-07-19T23:21:25.094Z,101357.56
2018-07-19T23:24:49.546Z,101356.16
2018-07-19T23:28:13.992Z,101358.91
2018-07-19T23:31:38.507Z,101353.80
2018-07-19T23:35:02.965Z,101357.08
2018-07-19T23:39:31.242Z,101350.71
2018-07-19T23:43:02.826Z,101347.14
2018-07-19T23:46:31.377Z,101350.84
2018-07-19T23:49:55.792Z,101348.62
2018-07-19T23:53:20.284Z,101341.65
2018-07-19T23:56:44.730Z,101337.47
